sensor_id;sensor_type;location;lat;lon;timestamp;temperature;humidity
11925;DHT22;6022;48.768;18.608;2023-04-15T00:01:40;7.40;99.90
11925;DHT22;6022;48.768;18.608;2023-04-15T00:04:07;7.40;99.90
11925;DHT22;6022;48.768;18.608;2023-04-15T00:06:36;7.20;99.90
11925;DHT22;6022;48.768;18.608;2023-04-15T00:09:04;7.40;99.90
11925;DHT22;6022;48.768;18.608;2023-04-15T00:11:31;7.20;99.90
11925;DHT22;6022;48.768;18.608;2023-04-15T00:13:58;7.10;99.90
11925;DHT22;6022;48.768;18.608;2023-04-15T00:16:27;7.20;99.90
11925;DHT22;6022;48.768;18.608;2023-04-15T00:18:54;7.10;99.90
11925;DHT22;6022;48.768;18.608;2023-04-15T00:21:22;6.90;99.90
11925;DHT22;6022;48.768;18.608;2023-04-15T00:23:49;7.10;99.90
11925;DHT22;6022;48.768;18.608;2023-04-15T00:26:19;7.00;99.90
11925;DHT22;6022;48.768;18.608;2023-04-15T00:28:46;7.00;99.90
11925;DHT22;6022;48.768;18.608;2023-04-15T00:31:14;7.10;99.90
11925;DHT22;6022;48.768;18.608;2023-04-15T00:33:41;7.00;99.90
11925;DHT22;6022;48.768;18.608;2023-04-15T00:36:08;7.00;99.90
11925;DHT22;6022;48.768;18.608;2023-04-15T00:38:37;7.10;99.90
11925;DHT22;6022;48.768;18.608;2023-04-15T00:41:04;7.30;99.90
11925;DHT22;6022;48.768;18.608;2023-04-15T00:43:32;7.20;99.90
11925;DHT22;6022;48.768;18.608;2023-04-15T00:46:00;7.00;99.90
11925;DHT22;6022;48.768;18.608;2023-04-15T00:48:30;7.00;99.90
11925;DHT22;6022;48.768;18.608;2023-04-15T00:50:58;7.20;99.90
11925;DHT22;6022;48.768;18.608;2023-04-15T00:53:25;7.10;99.90
11925;DHT22;6022;48.768;18.608;2023-04-15T00:55:55;7.10;99.90
11925;DHT22;6022;48.768;18.608;2023-04-15T00:58:22;7.10;99.90
11925;DHT22;6022;48.768;18.608;2023-04-15T01:00:51;7.00;99.90
11925;DHT22;6022;48.768;18.608;2023-04-15T01:03:20;7.10;99.90
11925;DHT22;6022;48.768;18.608;2023-04-15T01:05:48;7.40;99.90
11925;DHT22;6022;48.768;18.608;2023-04-15T01:08:16;7.10;99.90
11925;DHT22;6022;48.768;18.608;2023-04-15T01:10:43;7.20;99.90
11925;DHT22;6022;48.768;18.608;2023-04-15T01:13:11;7.00;99.90
11925;DHT22;6022;48.768;18.608;2023-04-15T01:15:38;7.00;99.90
11925;DHT22;6022;48.768;18.608;2023-04-15T01:18:06;7.00;99.90
11925;DHT22;6022;48.768;18.608;2023-04-15T01:20:34;7.00;99.90
11925;DHT22;6022;48.768;18.608;2023-04-15T01:23:02;7.10;99.90
11925;DHT22;6022;48.768;18.608;2023-04-15T01:25:33;7.00;99.90
11925;DHT22;6022;48.768;18.608;2023-04-15T01:28:01;7.00;99.90
11925;DHT22;6022;48.768;18.608;2023-04-15T01:30:33;6.90;99.90
11925;DHT22;6022;48.768;18.608;2023-04-15T01:33:00;7.00;99.90
11925;DHT22;6022;48.768;18.608;2023-04-15T01:35:28;6.90;99.90
11925;DHT22;6022;48.768;18.608;2023-04-15T01:38:03;7.00;99.90
11925;DHT22;6022;48.768;18.608;2023-04-15T01:40:33;7.00;99.90
11925;DHT22;6022;48.768;18.608;2023-04-15T01:43:01;7.10;99.90
11925;DHT22;6022;48.768;18.608;2023-04-15T01:45:29;7.00;99.90
11925;DHT22;6022;48.768;18.608;2023-04-15T01:47:57;6.90;99.90
11925;DHT22;6022;48.768;18.608;2023-04-15T01:50:25;6.90;99.90
11925;DHT22;6022;48.768;18.608;2023-04-15T01:52:52;6.90;99.90
11925;DHT22;6022;48.768;18.608;2023-04-15T01:55:20;6.90;99.90
11925;DHT22;6022;48.768;18.608;2023-04-15T01:57:47;6.90;99.90
11925;DHT22;6022;48.768;18.608;2023-04-15T02:00:14;7.10;99.90
11925;DHT22;6022;48.768;18.608;2023-04-15T02:02:42;6.90;99.90
11925;DHT22;6022;48.768;18.608;2023-04-15T02:05:10;7.00;99.90
11925;DHT22;6022;48.768;18.608;2023-04-15T02:07:38;6.90;99.90
11925;DHT22;6022;48.768;18.608;2023-04-15T02:10:05;7.00;99.90
11925;DHT22;6022;48.768;18.608;2023-04-15T02:12:32;6.90;99.90
11925;DHT22;6022;48.768;18.608;2023-04-15T02:15:00;7.00;99.90
11925;DHT22;6022;48.768;18.608;2023-04-15T02:17:27;7.00;99.90
11925;DHT22;6022;48.768;18.608;2023-04-15T02:19:55;7.00;99.90
11925;DHT22;6022;48.768;18.608;2023-04-15T02:22:22;7.00;99.90
11925;DHT22;6022;48.768;18.608;2023-04-15T02:24:49;7.00;99.90
11925;DHT22;6022;48.768;18.608;2023-04-15T02:27:21;7.00;99.90
11925;DHT22;6022;48.768;18.608;2023-04-15T02:29:48;7.00;99.90
11925;DHT22;6022;48.768;18.608;2023-04-15T02:32:17;7.00;99.90
11925;DHT22;6022;48.768;18.608;2023-04-15T02:34:44;7.00;99.90
11925;DHT22;6022;48.768;18.608;2023-04-15T02:37:13;7.00;99.90
11925;DHT22;6022;48.768;18.608;2023-04-15T02:39:40;7.00;99.90
11925;DHT22;6022;48.768;18.608;2023-04-15T02:42:07;6.80;99.90
11925;DHT22;6022;48.768;18.608;2023-04-15T02:44:37;6.90;99.90
11925;DHT22;6022;48.768;18.608;2023-04-15T02:47:05;7.10;99.90
11925;DHT22;6022;48.768;18.608;2023-04-15T02:49:33;7.00;99.90
11925;DHT22;6022;48.768;18.608;2023-04-15T02:52:00;7.00;99.90
11925;DHT22;6022;48.768;18.608;2023-04-15T02:54:27;7.40;99.90
11925;DHT22;6022;48.768;18.608;2023-04-15T02:56:55;6.90;99.90
11925;DHT22;6022;48.768;18.608;2023-04-15T02:59:23;7.00;99.90
11925;DHT22;6022;48.768;18.608;2023-04-15T03:01:51;6.90;99.90
11925;DHT22;6022;48.768;18.608;2023-04-15T03:04:18;7.00;99.90
11925;DHT22;6022;48.768;18.608;2023-04-15T03:06:45;7.10;99.90
11925;DHT22;6022;48.768;18.608;2023-04-15T03:09:13;6.90;99.90
11925;DHT22;6022;48.768;18.608;2023-04-15T03:11:40;7.00;99.90
11925;DHT22;6022;48.768;18.608;2023-04-15T03:14:07;7.00;99.90
11925;DHT22;6022;48.768;18.608;2023-04-15T03:16:35;7.00;99.90
11925;DHT22;6022;48.768;18.608;2023-04-15T03:19:02;7.00;99.90
11925;DHT22;6022;48.768;18.608;2023-04-15T03:21:30;7.00;99.90
11925;DHT22;6022;48.768;18.608;2023-04-15T03:23:57;7.00;99.90
11925;DHT22;6022;48.768;18.608;2023-04-15T03:26:28;6.90;99.90
11925;DHT22;6022;48.768;18.608;2023-04-15T03:28:56;7.00;99.90
11925;DHT22;6022;48.768;18.608;2023-04-15T03:31:24;7.00;99.90
11925;DHT22;6022;48.768;18.608;2023-04-15T03:33:52;6.90;99.90
11925;DHT22;6022;48.768;18.608;2023-04-15T03:36:20;7.30;99.90
11925;DHT22;6022;48.768;18.608;2023-04-15T03:38:49;6.90;99.90
11925;DHT22;6022;48.768;18.608;2023-04-15T03:41:16;7.00;99.90
11925;DHT22;6022;48.768;18.608;2023-04-15T03:43:44;6.80;99.90
11925;DHT22;6022;48.768;18.608;2023-04-15T03:46:11;7.00;99.90
11925;DHT22;6022;48.768;18.608;2023-04-15T03:48:38;7.10;99.90
11925;DHT22;6022;48.768;18.608;2023-04-15T03:51:08;7.10;99.90
11925;DHT22;6022;48.768;18.608;2023-04-15T03:53:35;7.40;99.90
11925;DHT22;6022;48.768;18.608;2023-04-15T03:56:03;7.20;99.90
11925;DHT22;6022;48.768;18.608;2023-04-15T03:58:31;7.50;99.90
11925;DHT22;6022;48.768;18.608;2023-04-15T04:00:58;7.40;99.90
11925;DHT22;6022;48.768;18.608;2023-04-15T04:03:25;7.40;99.90
11925;DHT22;6022;48.768;18.608;2023-04-15T04:05:53;7.40;99.90
11925;DHT22;6022;48.768;18.608;2023-04-15T04:08:21;7.10;99.90
11925;DHT22;6022;48.768;18.608;2023-04-15T04:10:50;7.40;99.90
11925;DHT22;6022;48.768;18.608;2023-04-15T04:13:17;7.20;99.90
11925;DHT22;6022;48.768;18.608;2023-04-15T04:15:46;7.30;99.90
11925;DHT22;6022;48.768;18.608;2023-04-15T04:18:14;7.50;99.90
11925;DHT22;6022;48.768;18.608;2023-04-15T04:20:41;7.50;99.90
11925;DHT22;6022;48.768;18.608;2023-04-15T04:23:08;7.20;99.90
11925;DHT22;6022;48.768;18.608;2023-04-15T04:25:36;7.60;99.90
11925;DHT22;6022;48.768;18.608;2023-04-15T04:28:03;7.40;99.90
11925;DHT22;6022;48.768;18.608;2023-04-15T04:30:31;7.40;99.90
11925;DHT22;6022;48.768;18.608;2023-04-15T04:32:58;7.50;99.90
11925;DHT22;6022;48.768;18.608;2023-04-15T04:35:26;7.50;99.90
11925;DHT22;6022;48.768;18.608;2023-04-15T04:37:54;7.60;99.90
11925;DHT22;6022;48.768;18.608;2023-04-15T04:40:21;7.50;99.90
11925;DHT22;6022;48.768;18.608;2023-04-15T04:42:49;7.60;99.90
11925;DHT22;6022;48.768;18.608;2023-04-15T04:45:16;7.60;99.90
11925;DHT22;6022;48.768;18.608;2023-04-15T04:47:43;7.70;99.90
11925;DHT22;6022;48.768;18.608;2023-04-15T04:50:11;7.60;99.90
11925;DHT22;6022;48.768;18.608;2023-04-15T04:52:38;7.60;99.90
11925;DHT22;6022;48.768;18.608;2023-04-15T04:55:06;7.70;99.90
11925;DHT22;6022;48.768;18.608;2023-04-15T04:57:34;7.70;99.90
11925;DHT22;6022;48.768;18.608;2023-04-15T05:00:02;7.70;99.90
11925;DHT22;6022;48.768;18.608;2023-04-15T05:02:30;7.80;99.90
11925;DHT22;6022;48.768;18.608;2023-04-15T05:04:58;7.50;99.90
11925;DHT22;6022;48.768;18.608;2023-04-15T05:07:25;7.80;99.90
11925;DHT22;6022;48.768;18.608;2023-04-15T05:09:53;7.60;99.90
11925;DHT22;6022;48.768;18.608;2023-04-15T05:12:20;7.60;99.90
11925;DHT22;6022;48.768;18.608;2023-04-15T05:14:47;7.70;99.90
11925;DHT22;6022;48.768;18.608;2023-04-15T05:17:14;7.80;99.90
11925;DHT22;6022;48.768;18.608;2023-04-15T05:19:41;7.90;99.90
11925;DHT22;6022;48.768;18.608;2023-04-15T05:22:08;7.70;99.90
11925;DHT22;6022;48.768;18.608;2023-04-15T05:24:35;7.80;99.90
11925;DHT22;6022;48.768;18.608;2023-04-15T05:27:03;7.80;99.90
11925;DHT22;6022;48.768;18.608;2023-04-15T05:29:30;8.10;99.90
11925;DHT22;6022;48.768;18.608;2023-04-15T05:31:57;8.10;99.90
11925;DHT22;6022;48.768;18.608;2023-04-15T05:34:24;8.20;99.90
11925;DHT22;6022;48.768;18.608;2023-04-15T05:36:52;8.30;99.90
11925;DHT22;6022;48.768;18.608;2023-04-15T05:39:19;8.40;99.90
11925;DHT22;6022;48.768;18.608;2023-04-15T05:41:47;8.70;99.90
11925;DHT22;6022;48.768;18.608;2023-04-15T05:44:14;8.30;99.90
11925;DHT22;6022;48.768;18.608;2023-04-15T05:46:41;8.20;99.90
11925;DHT22;6022;48.768;18.608;2023-04-15T05:49:11;8.50;99.90
11925;DHT22;6022;48.768;18.608;2023-04-15T05:51:38;8.60;99.90
11925;DHT22;6022;48.768;18.608;2023-04-15T05:54:05;8.60;99.90
11925;DHT22;6022;48.768;18.608;2023-04-15T05:56:32;8.50;99.90
11925;DHT22;6022;48.768;18.608;2023-04-15T05:58:59;8.40;99.90
11925;DHT22;6022;48.768;18.608;2023-04-15T06:01:27;8.40;99.90
11925;DHT22;6022;48.768;18.608;2023-04-15T06:03:55;8.40;99.90
11925;DHT22;6022;48.768;18.608;2023-04-15T06:06:23;9.00;99.90
11925;DHT22;6022;48.768;18.608;2023-04-15T06:08:51;11.70;99.90
11925;DHT22;6022;48.768;18.608;2023-04-15T06:11:22;13.20;99.90
11925;DHT22;6022;48.768;18.608;2023-04-15T06:13:49;14.60;99.90
11925;DHT22;6022;48.768;18.608;2023-04-15T06:16:16;15.50;99.90
11925;DHT22;6022;48.768;18.608;2023-04-15T06:18:45;16.30;99.90
11925;DHT22;6022;48.768;18.608;2023-04-15T06:21:12;16.30;99.90
11925;DHT22;6022;48.768;18.608;2023-04-15T06:23:40;17.40;99.90
11925;DHT22;6022;48.768;18.608;2023-04-15T06:26:07;17.10;99.90
11925;DHT22;6022;48.768;18.608;2023-04-15T06:28:39;16.50;99.90
11925;DHT22;6022;48.768;18.608;2023-04-15T06:31:09;16.10;99.90
11925;DHT22;6022;48.768;18.608;2023-04-15T06:33:36;15.50;99.90
11925;DHT22;6022;48.768;18.608;2023-04-15T06:36:04;13.70;99.90
11925;DHT22;6022;48.768;18.608;2023-04-15T06:38:31;13.00;99.90
11925;DHT22;6022;48.768;18.608;2023-04-15T06:40:58;11.90;99.90
11925;DHT22;6022;48.768;18.608;2023-04-15T06:43:26;11.70;99.90
11925;DHT22;6022;48.768;18.608;2023-04-15T06:45:55;11.40;99.90
11925;DHT22;6022;48.768;18.608;2023-04-15T06:48:35;11.50;99.90
11925;DHT22;6022;48.768;18.608;2023-04-15T06:51:03;11.50;99.90
11925;DHT22;6022;48.768;18.608;2023-04-15T06:53:38;11.30;99.90
11925;DHT22;6022;48.768;18.608;2023-04-15T06:56:15;11.00;99.90
11925;DHT22;6022;48.768;18.608;2023-04-15T06:58:52;10.60;99.90
11925;DHT22;6022;48.768;18.608;2023-04-15T07:01:19;10.50;99.90
11925;DHT22;6022;48.768;18.608;2023-04-15T07:03:47;10.60;99.90
11925;DHT22;6022;48.768;18.608;2023-04-15T07:06:14;10.60;99.90
11925;DHT22;6022;48.768;18.608;2023-04-15T07:08:41;10.70;99.90
11925;DHT22;6022;48.768;18.608;2023-04-15T07:11:09;10.50;99.90
11925;DHT22;6022;48.768;18.608;2023-04-15T07:13:36;10.30;99.90
11925;DHT22;6022;48.768;18.608;2023-04-15T07:16:04;9.90;99.90
11925;DHT22;6022;48.768;18.608;2023-04-15T07:18:31;10.20;99.90
11925;DHT22;6022;48.768;18.608;2023-04-15T07:20:58;10.40;99.90
11925;DHT22;6022;48.768;18.608;2023-04-15T07:23:26;10.70;99.90
11925;DHT22;6022;48.768;18.608;2023-04-15T07:25:53;10.80;99.90
11925;DHT22;6022;48.768;18.608;2023-04-15T07:28:20;10.70;99.90
11925;DHT22;6022;48.768;18.608;2023-04-15T07:30:48;11.00;99.90
11925;DHT22;6022;48.768;18.608;2023-04-15T07:33:15;11.40;99.90
11925;DHT22;6022;48.768;18.608;2023-04-15T07:35:42;12.40;99.90
11925;DHT22;6022;48.768;18.608;2023-04-15T07:38:11;13.00;99.90
11925;DHT22;6022;48.768;18.608;2023-04-15T07:40:39;13.60;99.90
11925;DHT22;6022;48.768;18.608;2023-04-15T07:43:08;13.70;99.90
11925;DHT22;6022;48.768;18.608;2023-04-15T07:45:35;13.30;99.90
11925;DHT22;6022;48.768;18.608;2023-04-15T07:48:03;14.10;99.90
11925;DHT22;6022;48.768;18.608;2023-04-15T07:50:30;14.00;99.90
11925;DHT22;6022;48.768;18.608;2023-04-15T07:52:58;13.70;99.90
11925;DHT22;6022;48.768;18.608;2023-04-15T07:55:25;13.60;99.90
11925;DHT22;6022;48.768;18.608;2023-04-15T07:57:54;13.80;99.90
11925;DHT22;6022;48.768;18.608;2023-04-15T08:00:21;13.70;99.90
11925;DHT22;6022;48.768;18.608;2023-04-15T08:02:49;13.70;99.90
11925;DHT22;6022;48.768;18.608;2023-04-15T08:05:19;13.10;99.90
11925;DHT22;6022;48.768;18.608;2023-04-15T08:07:46;12.60;99.90
11925;DHT22;6022;48.768;18.608;2023-04-15T08:10:14;11.90;99.90
11925;DHT22;6022;48.768;18.608;2023-04-15T08:12:41;12.00;99.90
11925;DHT22;6022;48.768;18.608;2023-04-15T08:15:09;11.80;99.90
11925;DHT22;6022;48.768;18.608;2023-04-15T08:17:36;12.00;99.90
11925;DHT22;6022;48.768;18.608;2023-04-15T08:20:04;12.20;99.90
11925;DHT22;6022;48.768;18.608;2023-04-15T08:22:32;11.80;99.90
11925;DHT22;6022;48.768;18.608;2023-04-15T08:24:59;11.80;99.90
11925;DHT22;6022;48.768;18.608;2023-04-15T08:27:26;11.70;99.90
11925;DHT22;6022;48.768;18.608;2023-04-15T08:29:53;12.20;99.90
11925;DHT22;6022;48.768;18.608;2023-04-15T08:32:20;11.80;99.90
11925;DHT22;6022;48.768;18.608;2023-04-15T08:34:48;11.70;99.90
11925;DHT22;6022;48.768;18.608;2023-04-15T08:37:15;12.00;99.90
11925;DHT22;6022;48.768;18.608;2023-04-15T08:39:43;12.80;99.90
11925;DHT22;6022;48.768;18.608;2023-04-15T08:42:14;13.40;99.90
11925;DHT22;6022;48.768;18.608;2023-04-15T08:44:43;14.70;99.90
11925;DHT22;6022;48.768;18.608;2023-04-15T08:47:13;15.10;99.90
11925;DHT22;6022;48.768;18.608;2023-04-15T08:49:43;16.90;99.90
11925;DHT22;6022;48.768;18.608;2023-04-15T08:52:11;18.00;99.90
11925;DHT22;6022;48.768;18.608;2023-04-15T08:54:38;18.20;99.90
11925;DHT22;6022;48.768;18.608;2023-04-15T08:57:06;17.50;99.90
11925;DHT22;6022;48.768;18.608;2023-04-15T08:59:33;17.00;99.90
11925;DHT22;6022;48.768;18.608;2023-04-15T09:02:01;16.60;99.90
11925;DHT22;6022;48.768;18.608;2023-04-15T09:04:31;16.40;99.90
11925;DHT22;6022;48.768;18.608;2023-04-15T09:06:59;15.90;99.90
11925;DHT22;6022;48.768;18.608;2023-04-15T09:09:35;15.40;99.90
11925;DHT22;6022;48.768;18.608;2023-04-15T09:12:07;15.00;99.90
11925;DHT22;6022;48.768;18.608;2023-04-15T09:14:34;15.20;99.90
11925;DHT22;6022;48.768;18.608;2023-04-15T09:17:03;15.70;99.90
11925;DHT22;6022;48.768;18.608;2023-04-15T09:19:31;15.30;99.90
11925;DHT22;6022;48.768;18.608;2023-04-15T09:22:01;15.80;99.90
11925;DHT22;6022;48.768;18.608;2023-04-15T09:24:36;17.20;99.90
11925;DHT22;6022;48.768;18.608;2023-04-15T09:27:05;17.00;99.90
11925;DHT22;6022;48.768;18.608;2023-04-15T09:29:32;17.20;99.90
11925;DHT22;6022;48.768;18.608;2023-04-15T09:32:13;17.20;99.90
11925;DHT22;6022;48.768;18.608;2023-04-15T09:34:41;16.50;99.90
11925;DHT22;6022;48.768;18.608;2023-04-15T09:37:09;16.60;99.90
11925;DHT22;6022;48.768;18.608;2023-04-15T09:39:49;16.50;99.90
11925;DHT22;6022;48.768;18.608;2023-04-15T09:42:18;18.00;99.90
11925;DHT22;6022;48.768;18.608;2023-04-15T09:44:52;18.80;99.90
11925;DHT22;6022;48.768;18.608;2023-04-15T09:47:27;19.40;99.90
11925;DHT22;6022;48.768;18.608;2023-04-15T09:49:57;19.40;97.10
11925;DHT22;6022;48.768;18.608;2023-04-15T09:52:25;19.70;99.90
11925;DHT22;6022;48.768;18.608;2023-04-15T09:54:54;19.80;93.40
11925;DHT22;6022;48.768;18.608;2023-04-15T09:57:23;19.90;88.60
11925;DHT22;6022;48.768;18.608;2023-04-15T09:59:51;19.70;88.40
11925;DHT22;6022;48.768;18.608;2023-04-15T10:02:19;19.70;86.70
11925;DHT22;6022;48.768;18.608;2023-04-15T10:04:51;19.00;89.80
11925;DHT22;6022;48.768;18.608;2023-04-15T10:07:20;19.50;91.70
11925;DHT22;6022;48.768;18.608;2023-04-15T10:09:48;19.90;90.10
11925;DHT22;6022;48.768;18.608;2023-04-15T10:12:16;19.70;87.60
11925;DHT22;6022;48.768;18.608;2023-04-15T10:14:51;19.40;86.80
11925;DHT22;6022;48.768;18.608;2023-04-15T10:17:26;19.30;86.40
11925;DHT22;6022;48.768;18.608;2023-04-15T10:20:02;19.80;88.70
11925;DHT22;6022;48.768;18.608;2023-04-15T10:22:31;19.50;91.60
11925;DHT22;6022;48.768;18.608;2023-04-15T10:24:59;19.50;91.00
11925;DHT22;6022;48.768;18.608;2023-04-15T10:27:31;18.30;89.20
11925;DHT22;6022;48.768;18.608;2023-04-15T10:29:59;18.30;90.30
11925;DHT22;6022;48.768;18.608;2023-04-15T10:32:29;18.50;91.50
11925;DHT22;6022;48.768;18.608;2023-04-15T10:34:57;18.80;93.00
11925;DHT22;6022;48.768;18.608;2023-04-15T10:37:37;17.00;95.10
11925;DHT22;6022;48.768;18.608;2023-04-15T10:42:59;16.10;98.20
11925;DHT22;6022;48.768;18.608;2023-04-15T10:45:35;15.80;99.90
11925;DHT22;6022;48.768;18.608;2023-04-15T10:48:05;16.10;99.80
11925;DHT22;6022;48.768;18.608;2023-04-15T10:50:33;17.40;99.90
11925;DHT22;6022;48.768;18.608;2023-04-15T10:53:09;18.10;96.40
11925;DHT22;6022;48.768;18.608;2023-04-15T10:55:37;18.70;93.30
11925;DHT22;6022;48.768;18.608;2023-04-15T10:58:10;18.70;93.40
11925;DHT22;6022;48.768;18.608;2023-04-15T11:00:38;18.80;89.20
11925;DHT22;6022;48.768;18.608;2023-04-15T11:03:08;18.60;94.40
11925;DHT22;6022;48.768;18.608;2023-04-15T11:05:49;17.90;92.70
11925;DHT22;6022;48.768;18.608;2023-04-15T11:08:21;18.00;93.80
11925;DHT22;6022;48.768;18.608;2023-04-15T11:12:07;19.10;90.30
11925;DHT22;6022;48.768;18.608;2023-04-15T11:14:39;19.40;84.40
11925;DHT22;6022;48.768;18.608;2023-04-15T11:17:12;19.40;89.20
11925;DHT22;6022;48.768;18.608;2023-04-15T11:19:39;19.00;89.30
11925;DHT22;6022;48.768;18.608;2023-04-15T11:22:10;19.00;91.10
11925;DHT22;6022;48.768;18.608;2023-04-15T11:24:46;17.60;77.90
11925;DHT22;6022;48.768;18.608;2023-04-15T11:27:25;17.30;81.50
11925;DHT22;6022;48.768;18.608;2023-04-15T11:29:53;18.00;83.20
11925;DHT22;6022;48.768;18.608;2023-04-15T11:32:20;18.10;79.50
11925;DHT22;6022;48.768;18.608;2023-04-15T11:34:48;18.20;81.00
11925;DHT22;6022;48.768;18.608;2023-04-15T11:37:15;18.10;83.80
11925;DHT22;6022;48.768;18.608;2023-04-15T11:39:42;17.80;83.00
11925;DHT22;6022;48.768;18.608;2023-04-15T11:42:17;17.30;84.40
11925;DHT22;6022;48.768;18.608;2023-04-15T11:44:44;16.80;90.40
11925;DHT22;6022;48.768;18.608;2023-04-15T11:47:24;16.10;92.30
11925;DHT22;6022;48.768;18.608;2023-04-15T11:49:51;16.30;91.90
11925;DHT22;6022;48.768;18.608;2023-04-15T11:52:18;16.00;95.20
11925;DHT22;6022;48.768;18.608;2023-04-15T11:54:45;16.00;94.60
11925;DHT22;6022;48.768;18.608;2023-04-15T11:57:13;16.20;96.80
11925;DHT22;6022;48.768;18.608;2023-04-15T11:59:41;16.40;93.90
11925;DHT22;6022;48.768;18.608;2023-04-15T12:02:12;16.20;94.60
11925;DHT22;6022;48.768;18.608;2023-04-15T12:04:40;15.90;96.10
11925;DHT22;6022;48.768;18.608;2023-04-15T12:07:08;16.10;96.70
11925;DHT22;6022;48.768;18.608;2023-04-15T12:09:39;15.80;95.50
11925;DHT22;6022;48.768;18.608;2023-04-15T12:12:08;15.80;97.00
11925;DHT22;6022;48.768;18.608;2023-04-15T12:14:40;15.60;96.90
11925;DHT22;6022;48.768;18.608;2023-04-15T12:17:12;15.60;96.80
11925;DHT22;6022;48.768;18.608;2023-04-15T12:19:40;15.60;95.40
11925;DHT22;6022;48.768;18.608;2023-04-15T12:22:16;15.50;94.50
11925;DHT22;6022;48.768;18.608;2023-04-15T12:24:44;15.50;96.10
11925;DHT22;6022;48.768;18.608;2023-04-15T12:27:16;15.50;96.50
11925;DHT22;6022;48.768;18.608;2023-04-15T12:29:43;15.60;96.80
11925;DHT22;6022;48.768;18.608;2023-04-15T12:32:12;15.40;97.00
11925;DHT22;6022;48.768;18.608;2023-04-15T12:34:49;15.60;97.30
11925;DHT22;6022;48.768;18.608;2023-04-15T12:37:18;15.40;97.80
11925;DHT22;6022;48.768;18.608;2023-04-15T12:39:47;15.40;96.90
11925;DHT22;6022;48.768;18.608;2023-04-15T12:42:19;15.10;96.10
11925;DHT22;6022;48.768;18.608;2023-04-15T12:44:46;15.00;98.20
11925;DHT22;6022;48.768;18.608;2023-04-15T12:47:13;15.00;99.90
11925;DHT22;6022;48.768;18.608;2023-04-15T12:49:41;15.20;99.00
11925;DHT22;6022;48.768;18.608;2023-04-15T12:52:09;15.10;99.90
11925;DHT22;6022;48.768;18.608;2023-04-15T12:54:36;15.10;99.40
11925;DHT22;6022;48.768;18.608;2023-04-15T12:57:03;14.90;99.90
11925;DHT22;6022;48.768;18.608;2023-04-15T12:59:34;14.90;99.90
11925;DHT22;6022;48.768;18.608;2023-04-15T13:02:02;14.70;99.90
11925;DHT22;6022;48.768;18.608;2023-04-15T13:04:29;14.30;99.90
11925;DHT22;6022;48.768;18.608;2023-04-15T13:06:57;14.30;99.90
11925;DHT22;6022;48.768;18.608;2023-04-15T13:09:26;14.20;99.90
11925;DHT22;6022;48.768;18.608;2023-04-15T13:11:54;14.10;99.90
11925;DHT22;6022;48.768;18.608;2023-04-15T13:14:25;14.20;99.90
11925;DHT22;6022;48.768;18.608;2023-04-15T13:16:52;14.10;99.90
11925;DHT22;6022;48.768;18.608;2023-04-15T13:19:20;14.50;99.90
11925;DHT22;6022;48.768;18.608;2023-04-15T13:21:47;14.20;99.90
11925;DHT22;6022;48.768;18.608;2023-04-15T13:24:14;14.30;99.90
11925;DHT22;6022;48.768;18.608;2023-04-15T13:26:42;14.40;99.90
11925;DHT22;6022;48.768;18.608;2023-04-15T13:29:09;14.70;99.90
11925;DHT22;6022;48.768;18.608;2023-04-15T13:31:38;14.50;99.90
11925;DHT22;6022;48.768;18.608;2023-04-15T13:34:05;14.20;99.90
11925;DHT22;6022;48.768;18.608;2023-04-15T13:36:33;14.80;99.90
11925;DHT22;6022;48.768;18.608;2023-04-15T13:39:03;14.30;99.90
11925;DHT22;6022;48.768;18.608;2023-04-15T13:41:33;14.00;99.90
11925;DHT22;6022;48.768;18.608;2023-04-15T13:44:00;14.20;99.90
11925;DHT22;6022;48.768;18.608;2023-04-15T13:46:31;14.10;99.90
11925;DHT22;6022;48.768;18.608;2023-04-15T13:48:59;14.10;99.90
11925;DHT22;6022;48.768;18.608;2023-04-15T13:51:26;14.10;99.90
11925;DHT22;6022;48.768;18.608;2023-04-15T13:53:53;14.00;99.90
11925;DHT22;6022;48.768;18.608;2023-04-15T13:56:20;13.50;99.90
11925;DHT22;6022;48.768;18.608;2023-04-15T13:58:48;13.40;99.90
11925;DHT22;6022;48.768;18.608;2023-04-15T14:01:15;13.60;99.90
11925;DHT22;6022;48.768;18.608;2023-04-15T14:03:42;13.20;99.90
11925;DHT22;6022;48.768;18.608;2023-04-15T14:06:10;13.10;99.90
11925;DHT22;6022;48.768;18.608;2023-04-15T14:08:40;13.10;99.90
11925;DHT22;6022;48.768;18.608;2023-04-15T14:11:10;13.20;99.90
11925;DHT22;6022;48.768;18.608;2023-04-15T14:13:38;12.90;99.90
11925;DHT22;6022;48.768;18.608;2023-04-15T14:16:05;12.80;99.90
11925;DHT22;6022;48.768;18.608;2023-04-15T14:18:32;12.70;99.90
11925;DHT22;6022;48.768;18.608;2023-04-15T14:20:59;12.60;99.90
11925;DHT22;6022;48.768;18.608;2023-04-15T14:23:26;12.50;99.90
11925;DHT22;6022;48.768;18.608;2023-04-15T14:25:54;12.50;99.90
11925;DHT22;6022;48.768;18.608;2023-04-15T14:28:22;12.40;99.90
11925;DHT22;6022;48.768;18.608;2023-04-15T14:30:50;12.40;99.90
11925;DHT22;6022;48.768;18.608;2023-04-15T14:33:18;12.40;99.90
11925;DHT22;6022;48.768;18.608;2023-04-15T14:35:46;12.50;99.90
11925;DHT22;6022;48.768;18.608;2023-04-15T14:38:13;12.50;99.90
11925;DHT22;6022;48.768;18.608;2023-04-15T14:40:40;12.10;99.90
11925;DHT22;6022;48.768;18.608;2023-04-15T14:43:11;12.20;99.90
11925;DHT22;6022;48.768;18.608;2023-04-15T14:45:47;12.40;99.90
11925;DHT22;6022;48.768;18.608;2023-04-15T14:48:25;12.30;99.90
11925;DHT22;6022;48.768;18.608;2023-04-15T14:51:26;12.10;99.90
11925;DHT22;6022;48.768;18.608;2023-04-15T14:53:57;12.10;99.90
11925;DHT22;6022;48.768;18.608;2023-04-15T14:56:24;12.00;99.90
11925;DHT22;6022;48.768;18.608;2023-04-15T14:58:52;12.10;99.90
11925;DHT22;6022;48.768;18.608;2023-04-15T15:01:20;11.90;99.90
11925;DHT22;6022;48.768;18.608;2023-04-15T15:03:48;11.90;99.90
11925;DHT22;6022;48.768;18.608;2023-04-15T15:06:20;11.90;99.90
11925;DHT22;6022;48.768;18.608;2023-04-15T15:08:48;11.50;99.90
11925;DHT22;6022;48.768;18.608;2023-04-15T15:11:16;11.30;99.90
11925;DHT22;6022;48.768;18.608;2023-04-15T15:13:43;11.00;99.90
11925;DHT22;6022;48.768;18.608;2023-04-15T15:16:10;11.00;99.90
11925;DHT22;6022;48.768;18.608;2023-04-15T15:18:40;10.80;99.90
11925;DHT22;6022;48.768;18.608;2023-04-15T15:21:07;10.90;99.90
11925;DHT22;6022;48.768;18.608;2023-04-15T15:23:35;10.90;99.90
11925;DHT22;6022;48.768;18.608;2023-04-15T15:26:02;11.00;99.90
11925;DHT22;6022;48.768;18.608;2023-04-15T15:28:30;11.00;99.90
11925;DHT22;6022;48.768;18.608;2023-04-15T15:30:57;11.20;99.90
11925;DHT22;6022;48.768;18.608;2023-04-15T15:33:24;11.00;99.90
11925;DHT22;6022;48.768;18.608;2023-04-15T15:35:54;10.70;99.90
11925;DHT22;6022;48.768;18.608;2023-04-15T15:38:21;10.70;99.90
11925;DHT22;6022;48.768;18.608;2023-04-15T15:40:48;10.70;99.90
11925;DHT22;6022;48.768;18.608;2023-04-15T15:43:15;10.50;99.90
11925;DHT22;6022;48.768;18.608;2023-04-15T15:45:43;10.50;99.90
11925;DHT22;6022;48.768;18.608;2023-04-15T15:48:10;10.50;99.90
11925;DHT22;6022;48.768;18.608;2023-04-15T15:50:37;10.20;99.90